Adelanto, California
Current Conditions -  °F | °C
As of 11:15 PM on Friday 19 Dec 2014 (Local Time) from KVCV Reporting Station
NA  
Wind Chill:   Ceiling: NA
Heat Index:   Visibility: 10mi
Dew Point:   Wind: 6mph
Humidity: 81%   Direction: 170°S
Pressure: 30.17"   Gusts: NA
Location:  34.58°N, 117.41°W
Report Text: KVCV 200715Z AUTO 17005KT 10SM 06/03 A3017 RMK AO2
Loading
Personal Weather Stations






























Interactive Weather Map New forecast layout! Learn more

10-Day Weather Forecast

Advertisements
Track Severe Weather on mobile